Aviation Digital Data Service (ADDS)

Output produced by METARs form (1709 UTC 29 May 2017)
found at http://www.aviationweather.gov/adds/metars/
 
VTBD 291700Z 15005KT 9999 FEW020 29/26 Q1008 NOSIG
TAF VTBD 291100Z 2912/3018 19008KT 9999 FEW020 
     BECMG 2920/2922 13005KT 
     BECMG 3002/3004 19008KT 
     TEMPO 3006/3010 23015KT 6000 -TSRA FEW018CB SCT030 BKN100
       
TAF VTUO 291100Z 2912/3012 20005KT 8000 SCT023 BKN100 
     TEMPO 2914/2919 VRB10KT 4000 TSRA FEW018CB BKN020 OVC100
       
VTCC 291700Z 00000KT 9999 BKN035 26/22 Q1010 NOSIG
TAF VTCC 291100Z 2912/3018 20005KT 9999 BKN035 
     TEMPO 3003/3008 22010KT 5000 RA SCT020 BKN030 
     TEMPO 3009/3012 VRB10G25KT 4000 TSRA FEW020CB BKN030
       
VTCT 291500Z 00000KT 9999 -RA BKN025 OVC100 25/25 Q1009 A2981
TAF VTCT 291100Z 2912/3018 20005KT 9999 BKN035 
     TEMPO 3009/3014 VRB10G25KT 4000 TSRA FEW020CB BKN030
       
VTSE 291200Z 17005KT 9000 SCT020 BKN080 29/25 Q1005
TAF VTSE 291100Z 2912/3012 00000KT 9000 FEW020 BKN100 
     PROB30 
     TEMPO 2920/3001 VRB10KT 6000 -RA SCT015 BKN100 
     BECMG 3001/3003 15010KT 
     TEMPO 3004/3010 VRB15KT 6000 -TSRA FEW016CB SCT018 BKN100
       
VTSS 291700Z 24003KT 8000 FEW020 BKN100 26/25 Q1009 NOSIG
TAF VTSS 291100Z 2912/3012 VRB02KT 9999 FEW020 SCT100 
     PROB40 
     TEMPO 2920/3001 VRB10KT 7000 -RA SCT015 BKN100 
     BECMG 3002/3004 22010KT 
     TEMPO 3006/3012 VRB15KT 6000 -TSRA FEW016CB SCT018 BKN100
       
VTPH 291200Z 00000KT 9999 SCT030 27/25 Q1005
TAF VTPH 291100Z 2912/3012 00000KT 9999 FEW030 
     BECMG 3002/3004 14008KT 
     TEMPO 3008/3012 VRB12KT 6000 -SHRA FEW018CB SCT028
       
VTUK 291700Z 16002KT 8000 NSC 28/25 Q1008 NOSIG
TAF VTUK 291100Z 2912/3012 08005KT 9999 FEW030 SCT080 
     BECMG 2914/2916 10004KT 9000 SCT030 SCT060 
     TEMPO 2917/2920 VRB15KT 5000 TSRA FEW018CB BKN020 BKN080 
     BECMG 2921/2923 VRB03KT 8000 FEW030 SCT080 
     BECMG 3002/3004 12004KT 9000 SCT030 SCT060 
     BECMG 3008/3010 10005KT 9999 SCT030 BKN060
       
VTSG 291700Z AUTO VRB03KT 2700 BR ////// 25/24 Q1010 A2984
TAF VTSG 291100Z 2912/3012 22006KT 9000 FEW020 
     PROB30 
     TEMPO 2912/2916 VRB10G20KT 3000 TSRA FEW016CB SCT020 BKN100 
     BECMG 2917/2919 VRB01KT 7000 FEW020 SCT100 
     BECMG 2921/2923 4000 BR 
     BECMG 3001/3003 20007KT 9999 NSW SCT020
       
VTCL 291200Z 00000KT 9999 SCT025 BKN100 27/24 Q1006 A2972
TAF VTCL 291100Z 2912/3012 20005KT 9999 SCT035 BKN110 
     TEMPO 3009/3014 VRB10G25KT 4000 TSRA FEW020CB BKN030
       
TAF VTUL 291100Z 2912/3012 14004KT 9000 FEW035 
     BECMG 2914/2916 12004KT 7000 SCT030 SCT060 
     TEMPO 2917/2920 VRB15KT 5000 TSRA FEW018CB BKN020 BKN080 
     BECMG 2921/2923 16003KT 5000 BR FEW030 SCT080 
     BECMG 3004/3006 14003KT 7000 NSW FEW030 SCT060 
     BECMG 3008/3010 12003KT 9000 SCT030 SCT060
       
TAF VTCH 291100Z 2912/3012 22005KT 9999 BKN035 
     TEMPO 3009/3012 VRB10G25KT 4000 TSRA FEW020CB BKN030
       
TAF VTPM 291100Z 2912/3012 20005KT 9999 BKN035 
     TEMPO 3009/3014 VRB10G25KT 4000 TSRA FEW020CB BKN030
       
TAF COR VTUW 290500Z 2906/3006 14005KT 9999 FEW030 
     BECMG 2910/2912 16005KT 9999 FEW030 SCT060 
     BECMG 2916/2918 12005KT 9000 FEW030 
     BECMG 2920/2922 10003KT 8000 FEW030 SCT060 
     BECMG 3002/3004 12005KT 9000 SCT030
       
TAF VTUQ 291100Z 2912/3012 18005KT 9000 BKN022 
     TEMPO 2914/2919 VRB10KT 4000 TSRA FEW018CB BKN020 OVC100
       
VTSF 291400Z 19003KT 8000 FEW018 26/25 Q1007
TAF VTSF 291100Z 2912/3012 VRB02KT 9999 SCT020 SCT100 
     BECMG 3002/3004 20010KT 
     TEMPO 3006/3012 VRB15KT 6000 -TSRA FEW016CB SCT018 BKN100
       
TAF VTCN 291100Z 2912/3012 18005KT 9999 SCT035 BKN110 
     TEMPO 3009/3014 VRB10G25KT 4000 TSRA FEW020CB BKN030
       
TAF VTSC 291100Z 2912/3012 21005KT 8000 SCT020 BKN100 
     TEMPO 2912/2916 VRB12KT 6000 -RA SCT015 BKN100 
     BECMG 3003/3005 07010KT 9999 
     TEMPO 3007/3012 VRB15KT 6000 -TSRA FEW016CB SCT018 BKN100
       
TAF VTSK 291100Z 2912/3012 VRB02KT 8000 SCT020 BKN100 
     TEMPO 2912/2916 VRB12KT 6000 -RA SCT015 BKN100 
     BECMG 3003/3005 36010KT 9999 
     TEMPO 3007/3012 VRB15KT 6000 -TSRA FEW016CB SCT018 BKN100
       
TAF VTPB 291100Z 2912/3012 18005KT 9999 SCT035 BKN110 
     TEMPO 3009/3014 VRB10G25KT 4000 TSRA FEW020CB BKN030
       
VTPP 291200Z 22004KT 9999 FEW018CB BKN023 BKN100 30/23 Q1005
TAF VTPP 291100Z 2912/3012 18005KT 9999 BKN035 
     TEMPO 3009/3014 VRB10G25KT 4000 TSRA FEW020CB BKN030
       
VTCP 291700Z AUTO 32003KT //// // ////// 25/25 Q1008
TAF VTCP 291100Z 2912/3012 18005KT 9999 SCT035 BKN110 
     TEMPO 3009/3014 VRB10G25KT 4000 TSRA FEW020CB BKN030
       
VTSP 291700Z 00000KT 8000 FEW018 SCT100 27/24 Q1011 NOSIG
TAF VTSP 291100Z 2912/3018 18004KT 7000 FEW018 BKN100 
     PROB40 
     TEMPO 2912/2916 VRB10G20KT 3000 TSRA FEW016CB SCT020 BKN100 
     BECMG 2918/2920 VRB01KT 
     BECMG 3000/3002 20008KT
       
TAF VTSR 291100Z 2912/3012 20010KT 8000 SCT020 BKN100 
     TEMPO 2912/2916 VRB10G20KT 3000 TSRA FEW016CB SCT020 BKN100 
     BECMG 2917/2919 VRB01KT 
     BECMG 3000/3002 21008KT
       
VTUV 291300Z 11004KT 6000 FEW020 SCT100 28/24 Q1007 A2975 INFO N RWY 36
TAF VTUV 291100Z 2912/3012 07005KT 7000 SCT022 BKN100 
     TEMPO 2916/2921 VRB10KT 5000 TSRA FEW018CB BKN020 OVC100
       
VTUI 291700Z AUTO 18003KT 140V210 9999 BKN170/// OVC210/// 28/24 Q1008 A2978
TAF VTUI 291100Z 2912/3012 12004KT 9999 FEW030 
     BECMG 2914/2916 14003KT 8000 FEW035 
     BECMG 2920/2922 VRB03KT 7000 FEW030 SCT080 
     BECMG 3002/3004 16004KT 9000 FEW030 SCT060 
     BECMG 3006/3008 14005KT 9000 SCT030 SCT060
       
VTSM 291430Z 00000KT 8000 FEW020 28/26 Q1008
TAF VTSM 291100Z 2912/3012 00000KT 8000 FEW020 SCT100 
     TEMPO 2912/2916 VRB12KT 6000 -RA SCT015 BKN100 
     BECMG 3001/3003 31010KT 9999
       
TAF VTSH 291100Z 2912/3012 VRB02KT 9000 FEW020 SCT100 
     BECMG 3003/3005 05010KT 
     TEMPO 3006/3012 VRB15KT 6000 -TSRA FEW016CB SCT018 BKN100
       
TAF VTPO 291100Z 2912/3012 18005KT 9999 BKN035 
     TEMPO 3009/3014 VRB10G25KT 4000 TSRA FEW020CB BKN030
       
VTSB 291500Z 21003KT 8000 FEW020 26/26 Q1008
TAF VTSB 291100Z 2912/3012 VRB02KT 9999 FEW020 BKN100 
     BECMG 2921/2923 5000 BR 
     BECMG 3001/3003 21010KT 9999 NSW 
     TEMPO 3006/3012 VRB15KT 6000 -TSRA FEW016CB SCT018 BKN100
       
TAF VTPT 291100Z 2912/3012 20005KT 9999 BKN035 
     TEMPO 3009/3014 VRB10G25KT 4000 TSRA FEW020CB BKN030
       
VTST 291200Z 27006KT 9999 FEW020 29/26 Q1005
TAF VTST 291100Z 2912/3012 20004KT 9999 FEW020 
     PROB30 
     TEMPO 2912/2916 VRB10G20KT 3000 TSRA FEW016CB SCT020 BKN100 
     BECMG 2917/2919 VRB01KT 7000 FEW020 SCT100 
     BECMG 2921/2923 1000 BR 
     BECMG 3001/3003 22007KT 9999 NSW SCT020
       
VTBU 291700Z 10004KT 5000 TS BR FEW018CB SCT035 BKN100 25/23 Q1008 RERA
TAF VTBU 291100Z 2912/3012 23006KT 6000 FEW020 BKN100 
     TEMPO 2913/2918 VRB10KT 4000 TSRA FEW018CB SCT035 BKN100 
     BECMG 2918/2920 20003KT 5000 BR
       
VTUU 291600Z 15003KT 8000 -RA FEW016 SCT022 25/25 Q1009 TEMPO 5000 RA
TAF VTUU 291100Z 2912/3012 26005KT 9999 SCT023 BKN100 
     TEMPO 2915/2920 VRB10KT 4000 TSRA FEW018CB BKN020 OVC100
       
VTUD 291500Z 11004KT 7000 NSC 29/22 Q1008
TAF VTUD 291100Z 2912/3012 18005KT 9999 FEW030 
     BECMG 2916/2918 14004KT 9000 FEW035 
     BECMG 2920/2922 10003KT 8000 FEW030 SCT080 
     BECMG 3002/3004 12004KT 9999 FEW030 SCT060 
     BECMG 3008/3010 14005KT 9999 SCT030 SCT060